createdAt,value
2018-12-29T00:01:04.469Z,4.10
2018-12-29T00:03:45.489Z,4.10
2018-12-29T00:06:26.299Z,4.10
2018-12-29T00:09:07.286Z,4.10
2018-12-29T00:11:47.814Z,4.20
2018-12-29T00:14:28.176Z,4.20
2018-12-29T00:17:09.020Z,4.30
2018-12-29T00:19:50.210Z,4.30
2018-12-29T00:22:31.255Z,4.30
2018-12-29T00:25:11.935Z,4.30
2018-12-29T00:27:52.835Z,4.30
2018-12-29T00:30:33.337Z,4.30
2018-12-29T00:33:13.877Z,4.30
2018-12-29T00:35:54.797Z,4.20
2018-12-29T00:38:35.751Z,4.20
2018-12-29T00:41:16.548Z,4.20
2018-12-29T00:43:57.280Z,4.20
2018-12-29T00:46:38.549Z,4.20
2018-12-29T00:49:19.092Z,4.20
2018-12-29T00:51:59.342Z,4.20
2018-12-29T00:54:40.538Z,4.20
2018-12-29T00:57:20.761Z,4.20
2018-12-29T01:00:01.701Z,4.20
2018-12-29T01:02:42.739Z,4.20
2018-12-29T01:05:23.312Z,4.20
2018-12-29T01:08:04.095Z,4.10
2018-12-29T01:10:45.322Z,4.20
2018-12-29T01:13:25.718Z,4.20
2018-12-29T01:16:06.491Z,4.20
2018-12-29T01:18:47.163Z,4.20
2018-12-29T01:21:28.111Z,4.20
2018-12-29T01:24:08.913Z,4.20
2018-12-29T01:26:49.557Z,4.20
2018-12-29T01:29:30.346Z,4.30
2018-12-29T01:32:10.776Z,4.20
2018-12-29T01:34:51.922Z,4.20
2018-12-29T01:37:32.458Z,4.20
2018-12-29T01:40:13.390Z,4.30
2018-12-29T01:42:53.681Z,4.30
2018-12-29T01:45:34.466Z,4.40
2018-12-29T01:48:15.112Z,4.40
2018-12-29T01:50:55.483Z,4.40
2018-12-29T01:53:36.419Z,4.40
2018-12-29T01:56:17.233Z,4.50
2018-12-29T01:58:58.153Z,4.50
2018-12-29T02:01:38.903Z,4.50
2018-12-29T02:04:19.570Z,4.60
2018-12-29T02:07:00.462Z,4.60
2018-12-29T02:09:41.459Z,4.50
2018-12-29T02:12:22.181Z,4.50
2018-12-29T02:15:02.803Z,4.50
2018-12-29T02:17:43.698Z,4.50
2018-12-29T02:20:24.362Z,4.50
2018-12-29T02:23:04.907Z,4.50
2018-12-29T02:25:45.587Z,4.50
2018-12-29T02:28:26.000Z,4.60
2018-12-29T02:31:07.066Z,4.60
2018-12-29T02:33:47.915Z,4.60
2018-12-29T02:36:28.637Z,4.60
2018-12-29T02:39:09.251Z,4.60
2018-12-29T02:41:50.117Z,4.70
2018-12-29T02:44:30.654Z,4.60
2018-12-29T02:47:11.375Z,4.60
2018-12-29T02:49:52.193Z,4.50
2018-12-29T02:52:33.333Z,4.60
2018-12-29T02:55:13.750Z,4.60
2018-12-29T02:57:54.551Z,4.60
2018-12-29T03:00:35.213Z,4.60
2018-12-29T03:03:16.015Z,4.60
2018-12-29T03:05:56.447Z,4.50
2018-12-29T03:08:37.029Z,4.50
2018-12-29T03:11:17.454Z,4.50
2018-12-29T03:13:58.502Z,4.50
2018-12-29T03:16:39.339Z,4.50
2018-12-29T03:19:20.100Z,4.50
2018-12-29T03:22:00.759Z,4.50
2018-12-29T03:24:41.381Z,4.50
2018-12-29T03:27:22.186Z,4.50
2018-12-29T03:30:03.098Z,4.60
2018-12-29T03:32:44.117Z,4.50
2018-12-29T03:35:25.469Z,4.60
2018-12-29T03:38:05.730Z,4.50
2018-12-29T03:40:46.107Z,4.60
2018-12-29T03:43:26.616Z,4.60
2018-12-29T03:46:07.446Z,4.60
2018-12-29T03:48:48.514Z,4.50
2018-12-29T03:51:29.110Z,4.50
2018-12-29T03:54:09.470Z,4.60
2018-12-29T03:56:50.223Z,4.60
2018-12-29T03:59:30.684Z,4.70
2018-12-29T04:02:11.460Z,4.70
2018-12-29T04:04:52.274Z,4.70
2018-12-29T04:07:33.311Z,4.60
2018-12-29T04:10:13.547Z,4.60
2018-12-29T04:12:54.454Z,4.60
2018-12-29T04:15:35.059Z,4.50
2018-12-29T04:18:15.830Z,4.50
2018-12-29T04:20:56.660Z,4.50
2018-12-29T04:23:37.477Z,4.50
2018-12-29T04:26:18.179Z,4.50
2018-12-29T04:28:58.828Z,4.50
2018-12-29T04:31:39.643Z,4.60
2018-12-29T04:34:20.620Z,4.60
2018-12-29T04:37:01.454Z,4.60
2018-12-29T04:39:42.253Z,4.50
2018-12-29T04:42:22.545Z,4.50
2018-12-29T04:45:03.539Z,4.50
2018-12-29T04:47:44.671Z,4.50
2018-12-29T04:50:25.292Z,4.50
2018-12-29T04:53:06.436Z,4.40
2018-12-29T04:55:47.310Z,4.50
2018-12-29T04:58:28.259Z,4.40
2018-12-29T05:01:09.026Z,4.40
2018-12-29T05:03:49.762Z,4.50
2018-12-29T05:06:30.309Z,4.50
2018-12-29T05:09:11.030Z,4.50
2018-12-29T05:11:51.684Z,4.50
2018-12-29T05:14:32.339Z,4.50
2018-12-29T05:17:13.137Z,4.50
2018-12-29T05:19:53.547Z,4.50
2018-12-29T05:22:34.478Z,4.50
2018-12-29T05:25:14.832Z,4.60
2018-12-29T05:27:55.614Z,4.50
2018-12-29T05:30:36.741Z,4.50
2018-12-29T05:33:17.623Z,4.50
2018-12-29T05:35:58.238Z,4.50
2018-12-29T05:38:39.280Z,4.50
2018-12-29T05:41:20.093Z,4.50
2018-12-29T05:44:00.711Z,4.60
2018-12-29T05:46:41.465Z,4.60
2018-12-29T05:49:22.104Z,4.60
2018-12-29T05:52:02.937Z,4.70
2018-12-29T05:54:43.739Z,4.70
2018-12-29T05:57:24.651Z,4.70
2018-12-29T06:00:05.340Z,4.80
2018-12-29T06:02:45.883Z,4.80
2018-12-29T06:05:26.711Z,4.80
2018-12-29T06:08:07.779Z,4.90
2018-12-29T06:10:48.354Z,4.90
2018-12-29T06:13:29.214Z,4.90
2018-12-29T06:16:10.109Z,4.80
2018-12-29T06:18:50.959Z,4.80
2018-12-29T06:21:32.223Z,4.80
2018-12-29T06:24:12.585Z,4.80
2018-12-29T06:26:53.236Z,4.70
2018-12-29T06:29:33.525Z,4.70
2018-12-29T06:32:14.203Z,4.70
2018-12-29T06:34:55.257Z,4.70
2018-12-29T06:37:35.563Z,4.70
2018-12-29T06:40:15.707Z,4.70
2018-12-29T06:42:56.814Z,4.70
2018-12-29T06:45:37.683Z,4.70
2018-12-29T06:51:34.877Z,4.70
2018-12-29T06:54:22.656Z,4.80
2018-12-29T06:57:10.409Z,4.80
2018-12-29T06:59:58.196Z,4.80
2018-12-29T07:02:45.961Z,4.80
2018-12-29T07:05:34.004Z,4.80
2018-12-29T07:08:21.775Z,4.80
2018-12-29T07:11:09.541Z,4.80
2018-12-29T07:13:57.309Z,4.80
2018-12-29T07:16:45.118Z,4.90
2018-12-29T07:19:32.917Z,4.90
2018-12-29T07:22:20.659Z,4.90
2018-12-29T07:25:01.566Z,4.90
2018-12-29T07:27:42.178Z,4.90
2018-12-29T07:30:22.659Z,4.90
2018-12-29T07:33:03.989Z,5.00
2018-12-29T07:35:44.581Z,5.00
2018-12-29T07:38:25.431Z,5.00
2018-12-29T07:41:05.949Z,5.10
2018-12-29T07:43:46.668Z,5.30
2018-12-29T07:46:27.678Z,5.50
2018-12-29T07:49:08.348Z,5.50
2018-12-29T07:51:48.874Z,5.40
2018-12-29T07:54:29.425Z,5.30
2018-12-29T07:57:10.494Z,5.30
2018-12-29T07:59:51.623Z,5.20
2018-12-29T08:02:32.926Z,5.20
2018-12-29T08:05:13.884Z,5.10
2018-12-29T08:07:54.706Z,5.10
2018-12-29T08:10:35.418Z,5.10
2018-12-29T08:13:16.042Z,5.20
2018-12-29T08:15:57.101Z,5.10
2018-12-29T08:18:37.922Z,5.10
2018-12-29T08:21:18.830Z,5.20
2018-12-29T08:23:59.059Z,5.20
2018-12-29T08:26:39.962Z,5.10
2018-12-29T08:29:21.004Z,5.10
2018-12-29T08:32:01.788Z,5.20
2018-12-29T08:34:42.372Z,5.10
2018-12-29T08:37:23.178Z,5.10
2018-12-29T08:40:03.803Z,5.20
2018-12-29T08:42:44.744Z,5.10
2018-12-29T08:45:25.283Z,5.20
2018-12-29T08:48:06.429Z,5.30
2018-12-29T08:50:47.377Z,5.20
2018-12-29T08:53:28.102Z,5.30
2018-12-29T08:56:08.653Z,5.30
2018-12-29T08:58:49.146Z,5.30
2018-12-29T09:01:29.956Z,5.40
2018-12-29T09:04:11.014Z,5.40
2018-12-29T09:06:51.482Z,5.40
2018-12-29T09:09:32.051Z,5.40
2018-12-29T09:12:12.824Z,5.40
2018-12-29T09:14:53.864Z,5.40
2018-12-29T09:17:34.269Z,5.50
2018-12-29T09:20:15.188Z,5.50
2018-12-29T09:22:56.463Z,5.50
2018-12-29T09:25:36.902Z,5.50
2018-12-29T09:28:18.087Z,5.50
2018-12-29T09:30:58.656Z,5.50
2018-12-29T09:33:39.570Z,5.50
2018-12-29T09:36:21.347Z,5.50
2018-12-29T09:39:02.613Z,5.50
2018-12-29T09:41:43.730Z,5.50
2018-12-29T09:44:23.987Z,5.60
2018-12-29T09:47:04.828Z,5.60
2018-12-29T09:49:45.207Z,5.60
2018-12-29T09:52:26.198Z,5.60
2018-12-29T09:55:07.423Z,5.80
2018-12-29T09:57:48.242Z,5.90
2018-12-29T10:00:29.137Z,6.00
2018-12-29T10:03:09.856Z,6.10
2018-12-29T10:05:50.647Z,6.30
2018-12-29T10:08:31.155Z,6.30
2018-12-29T10:11:11.601Z,6.30
2018-12-29T10:13:52.245Z,6.40
2018-12-29T10:16:33.106Z,6.40
2018-12-29T10:19:13.807Z,6.40
2018-12-29T10:21:54.641Z,6.50
2018-12-29T10:24:35.572Z,6.50
2018-12-29T10:27:16.563Z,6.60
2018-12-29T10:29:57.390Z,6.60
2018-12-29T10:32:38.393Z,6.60
2018-12-29T10:35:19.590Z,6.60
2018-12-29T10:38:00.648Z,6.60
2018-12-29T10:40:41.445Z,6.60
2018-12-29T10:43:22.415Z,6.70
2018-12-29T10:46:02.722Z,6.70
2018-12-29T10:48:43.618Z,6.70
2018-12-29T10:51:24.498Z,6.60
2018-12-29T10:54:05.230Z,6.70
2018-12-29T10:56:46.340Z,6.80
2018-12-29T10:59:26.813Z,6.70
2018-12-29T11:02:07.602Z,6.80
2018-12-29T11:04:48.651Z,6.80
2018-12-29T11:07:29.229Z,6.90
2018-12-29T11:10:10.104Z,6.90
2018-12-29T11:12:50.906Z,6.90
2018-12-29T11:15:31.955Z,6.80
2018-12-29T11:18:12.826Z,6.80
2018-12-29T11:20:53.727Z,6.80
2018-12-29T11:23:34.358Z,6.90
2018-12-29T11:26:15.153Z,6.90
2018-12-29T11:28:55.935Z,6.90
2018-12-29T11:31:36.767Z,6.90
2018-12-29T11:34:16.979Z,6.90
2018-12-29T11:36:57.890Z,7.00
2018-12-29T11:39:38.535Z,7.00
2018-12-29T11:42:19.627Z,7.00
2018-12-29T11:45:00.578Z,7.00
2018-12-29T11:47:41.736Z,7.10
2018-12-29T11:50:22.322Z,7.10
2018-12-29T11:53:03.454Z,7.10
2018-12-29T11:55:43.820Z,7.30
2018-12-29T11:58:25.170Z,7.30
2018-12-29T12:01:05.799Z,7.30
2018-12-29T12:03:47.066Z,7.50
2018-12-29T12:06:27.875Z,7.40
2018-12-29T12:09:08.597Z,7.40
2018-12-29T12:11:49.589Z,7.30
2018-12-29T12:14:30.247Z,7.40
2018-12-29T12:17:10.953Z,7.40
2018-12-29T12:19:51.801Z,7.40
2018-12-29T12:22:32.642Z,7.40
2018-12-29T12:25:13.815Z,7.40
2018-12-29T12:27:54.655Z,7.60
2018-12-29T12:30:35.113Z,7.60
2018-12-29T12:33:16.197Z,7.70
2018-12-29T12:35:57.277Z,7.70
2018-12-29T12:38:38.074Z,7.60
2018-12-29T12:41:19.346Z,7.60
2018-12-29T12:43:59.853Z,7.60
2018-12-29T12:46:40.807Z,7.70
2018-12-29T12:49:21.828Z,7.70
2018-12-29T12:52:02.267Z,7.80
2018-12-29T12:54:42.898Z,7.60
2018-12-29T12:57:24.135Z,7.60
2018-12-29T13:00:04.955Z,7.60
2018-12-29T13:02:45.465Z,7.60
2018-12-29T13:05:26.059Z,7.60
2018-12-29T13:08:07.119Z,7.60
2018-12-29T13:10:47.755Z,7.60
2018-12-29T13:13:28.770Z,7.70
2018-12-29T13:16:09.815Z,7.60
2018-12-29T13:18:50.345Z,7.60
2018-12-29T13:21:31.198Z,7.50
2018-12-29T13:24:11.599Z,7.50
2018-12-29T13:26:52.595Z,7.60
2018-12-29T13:29:33.270Z,7.60
2018-12-29T13:32:14.199Z,7.70
2018-12-29T13:34:54.953Z,7.60
2018-12-29T13:37:35.822Z,7.60
2018-12-29T13:40:16.618Z,7.60
2018-12-29T13:42:57.483Z,7.60
2018-12-29T13:45:37.927Z,7.60
2018-12-29T13:48:20.615Z,7.60
2018-12-29T13:51:01.216Z,7.60
2018-12-29T13:53:42.176Z,7.60
2018-12-29T13:56:22.671Z,7.70
2018-12-29T13:59:03.924Z,7.80
2018-12-29T14:01:44.210Z,7.90
2018-12-29T14:04:24.727Z,7.70
2018-12-29T14:07:05.817Z,7.70
2018-12-29T14:09:46.646Z,7.70
2018-12-29T14:12:27.246Z,7.70
2018-12-29T14:15:08.029Z,7.70
2018-12-29T14:17:49.042Z,7.70
2018-12-29T14:20:29.540Z,7.60
2018-12-29T14:23:10.341Z,7.60
2018-12-29T14:25:51.240Z,7.60
2018-12-29T14:28:32.167Z,7.60
2018-12-29T14:31:12.431Z,7.50
2018-12-29T14:33:52.930Z,7.50
2018-12-29T14:36:34.027Z,7.50
2018-12-29T14:39:14.937Z,7.40
2018-12-29T14:41:55.958Z,7.30
2018-12-29T14:44:36.841Z,7.40
2018-12-29T14:47:17.689Z,7.30
2018-12-29T14:49:58.891Z,7.30
2018-12-29T14:52:39.332Z,7.20
2018-12-29T14:55:20.543Z,7.30
2018-12-29T14:58:01.405Z,7.20
2018-12-29T15:00:42.707Z,7.20
2018-12-29T15:03:23.927Z,7.10
2018-12-29T15:06:04.743Z,7.20
2018-12-29T15:08:45.569Z,7.20
2018-12-29T15:11:26.227Z,7.30
2018-12-29T15:14:06.913Z,7.30
2018-12-29T15:16:47.811Z,7.20
2018-12-29T15:19:29.035Z,7.30
2018-12-29T15:22:09.571Z,7.20
2018-12-29T15:24:50.306Z,7.30
2018-12-29T15:27:30.890Z,7.30
2018-12-29T15:30:11.575Z,7.30
2018-12-29T15:32:52.279Z,7.30
2018-12-29T15:35:32.844Z,7.30
2018-12-29T15:38:13.456Z,7.30
2018-12-29T15:40:54.013Z,7.30
2018-12-29T15:43:35.279Z,7.20
2018-12-29T15:46:16.083Z,7.20
2018-12-29T15:48:56.808Z,7.20
2018-12-29T15:51:37.774Z,7.20
2018-12-29T15:54:18.687Z,7.10
2018-12-29T15:56:59.735Z,7.20
2018-12-29T15:59:40.186Z,7.30
2018-12-29T16:02:20.832Z,7.20
2018-12-29T16:05:01.944Z,7.20
2018-12-29T16:07:42.757Z,7.20
2018-12-29T16:10:23.771Z,7.10
2018-12-29T16:13:05.230Z,7.10
2018-12-29T16:15:45.961Z,7.10
2018-12-29T16:18:27.141Z,7.20
2018-12-29T16:21:07.902Z,7.20
2018-12-29T16:23:48.423Z,7.20
2018-12-29T16:26:29.030Z,7.20
2018-12-29T16:29:10.425Z,7.20
2018-12-29T16:31:51.115Z,7.20
2018-12-29T16:34:31.950Z,7.20
2018-12-29T16:37:13.065Z,7.30
2018-12-29T16:39:53.580Z,7.20
2018-12-29T16:42:34.169Z,7.20
2018-12-29T16:45:14.859Z,7.20
2018-12-29T16:47:55.328Z,7.10
2018-12-29T16:50:36.377Z,7.10
2018-12-29T16:53:16.670Z,7.10
2018-12-29T16:55:57.156Z,7.10
2018-12-29T16:58:37.612Z,7.10
2018-12-29T17:01:18.313Z,7.10
2018-12-29T17:03:59.536Z,7.10
2018-12-29T17:06:42.359Z,7.10
2018-12-29T17:09:23.299Z,7.10
2018-12-29T17:12:03.750Z,7.20
2018-12-29T17:14:44.672Z,7.20
2018-12-29T17:17:25.265Z,7.20
2018-12-29T17:20:06.571Z,7.20
2018-12-29T17:22:47.399Z,7.20
2018-12-29T17:25:28.355Z,7.20
2018-12-29T17:28:09.168Z,7.20
2018-12-29T17:30:49.950Z,7.30
2018-12-29T17:39:21.677Z,7.30
2018-12-29T17:42:02.228Z,7.30
2018-12-29T17:44:43.315Z,7.30
2018-12-29T17:47:24.469Z,7.40
2018-12-29T17:50:05.012Z,7.40
2018-12-29T17:52:45.406Z,7.40
2018-12-29T17:55:27.001Z,7.50
2018-12-29T17:58:07.699Z,7.50
2018-12-29T18:00:48.513Z,7.50
2018-12-29T18:03:29.246Z,7.50
2018-12-29T18:06:10.933Z,7.50
2018-12-29T18:08:52.121Z,7.50
2018-12-29T18:11:32.681Z,7.50
2018-12-29T18:14:13.626Z,7.60
2018-12-29T18:16:54.503Z,7.60
2018-12-29T18:19:30.335Z,7.60
2018-12-29T18:22:13.179Z,7.70
2018-12-29T18:25:00.963Z,7.70
2018-12-29T18:27:48.813Z,7.70
2018-12-29T18:30:36.895Z,7.80
2018-12-29T18:33:17.763Z,7.90
2018-12-29T18:35:58.135Z,7.90
2018-12-29T18:38:39.061Z,7.90
2018-12-29T18:41:20.022Z,8.00
2018-12-29T18:44:00.828Z,8.00
2018-12-29T18:46:41.484Z,8.10
2018-12-29T18:49:22.068Z,8.10
2018-12-29T18:52:02.939Z,8.10
2018-12-29T18:54:44.168Z,8.20
2018-12-29T18:57:24.443Z,8.20
2018-12-29T19:00:04.851Z,8.30
2018-12-29T19:02:45.502Z,8.30
2018-12-29T19:05:26.638Z,8.30
2018-12-29T19:08:07.766Z,8.30
2018-12-29T19:10:48.551Z,8.40
2018-12-29T19:13:29.684Z,8.40
2018-12-29T19:16:10.310Z,8.40
2018-12-29T19:18:51.356Z,8.40
2018-12-29T19:21:33.021Z,8.40
2018-12-29T19:24:14.266Z,8.40
2018-12-29T19:26:55.127Z,8.50
2018-12-29T19:29:36.129Z,8.50
2018-12-29T19:32:17.249Z,8.60
2018-12-29T19:34:58.913Z,8.60
2018-12-29T19:37:39.458Z,8.70
2018-12-29T19:40:20.052Z,8.70
2018-12-29T19:43:01.163Z,8.70
2018-12-29T19:45:41.715Z,8.70
2018-12-29T19:48:22.297Z,8.80
2018-12-29T19:51:03.077Z,8.80
2018-12-29T19:53:44.156Z,8.80
2018-12-29T19:56:24.502Z,8.80
2018-12-29T19:59:05.398Z,8.80
2018-12-29T20:01:47.018Z,8.90
2018-12-29T20:04:28.634Z,8.80
2018-12-29T20:07:09.388Z,8.80
2018-12-29T20:09:49.867Z,8.80
2018-12-29T20:12:30.888Z,8.70
2018-12-29T20:15:11.344Z,8.70
2018-12-29T20:17:51.988Z,8.60
2018-12-29T20:20:33.110Z,8.50
2018-12-29T20:23:13.806Z,8.50
2018-12-29T20:25:55.219Z,8.40
2018-12-29T20:28:35.699Z,8.40
2018-12-29T20:31:16.248Z,8.30
2018-12-29T20:33:57.355Z,8.30
2018-12-29T20:36:38.166Z,8.30
2018-12-29T20:39:19.096Z,8.30
2018-12-29T20:41:59.875Z,8.20
2018-12-29T20:44:41.026Z,8.20
2018-12-29T20:47:22.050Z,8.10
2018-12-29T20:50:09.575Z,8.00
2018-12-29T20:52:45.654Z,8.00
2018-12-29T20:55:26.145Z,7.90
2018-12-29T20:58:07.228Z,7.90
2018-12-29T21:00:48.088Z,8.00
2018-12-29T21:03:28.453Z,8.00
2018-12-29T21:06:09.013Z,8.00
2018-12-29T21:08:49.679Z,8.00
2018-12-29T21:11:30.020Z,8.00
2018-12-29T21:14:10.739Z,8.00
2018-12-29T21:16:51.117Z,8.00
2018-12-29T21:19:31.965Z,8.00
2018-12-29T21:22:12.200Z,8.00
2018-12-29T21:24:53.016Z,8.00
2018-12-29T21:27:34.413Z,8.00
2018-12-29T21:30:15.724Z,8.10
2018-12-29T21:32:56.232Z,8.10
2018-12-29T21:35:36.907Z,8.10
2018-12-29T21:38:18.685Z,8.10
2018-12-29T21:40:59.307Z,8.10
2018-12-29T21:43:39.956Z,8.10
2018-12-29T21:46:20.406Z,8.10
2018-12-29T21:49:01.056Z,8.20
2018-12-29T21:51:41.601Z,8.20
2018-12-29T21:54:22.847Z,8.20
2018-12-29T21:57:03.539Z,8.20
2018-12-29T21:59:44.777Z,8.10
2018-12-29T22:02:25.455Z,8.10
2018-12-29T22:05:06.398Z,8.10
2018-12-29T22:07:47.547Z,8.20
2018-12-29T22:10:28.150Z,8.20
2018-12-29T22:13:09.310Z,8.20
2018-12-29T22:15:50.027Z,8.20
2018-12-29T22:18:31.250Z,8.20
2018-12-29T22:21:12.210Z,8.20
2018-12-29T22:23:52.738Z,8.30
2018-12-29T22:26:33.440Z,8.20
2018-12-29T22:29:13.967Z,8.20
2018-12-29T22:31:54.436Z,8.20
2018-12-29T22:34:34.832Z,8.30
2018-12-29T22:37:15.360Z,8.30
2018-12-29T22:39:55.979Z,8.30
2018-12-29T22:42:36.540Z,8.30
2018-12-29T22:45:16.837Z,8.30
2018-12-29T22:47:57.692Z,8.30
2018-12-29T22:50:41.136Z,8.40
2018-12-29T22:53:21.913Z,8.40
2018-12-29T22:56:02.654Z,8.40
2018-12-29T22:58:42.997Z,8.40
2018-12-29T23:01:23.814Z,8.40
2018-12-29T23:04:04.618Z,8.50
2018-12-29T23:06:45.252Z,8.40
2018-12-29T23:09:26.002Z,8.40
2018-12-29T23:12:06.963Z,8.40
2018-12-29T23:14:47.663Z,8.40
2018-12-29T23:17:28.195Z,8.40
2018-12-29T23:20:08.979Z,8.40
2018-12-29T23:25:47.845Z,8.40
2018-12-29T23:28:28.585Z,8.40
2018-12-29T23:31:09.460Z,8.40
2018-12-29T23:33:50.025Z,8.40
2018-12-29T23:36:30.764Z,8.40
2018-12-29T23:39:11.794Z,8.50
2018-12-29T23:41:53.294Z,8.50
2018-12-29T23:44:33.963Z,8.50
2018-12-29T23:47:14.229Z,8.40
2018-12-29T23:49:55.367Z,8.50
2018-12-29T23:52:36.545Z,8.60
2018-12-29T23:55:17.451Z,8.70
2018-12-29T23:57:58.533Z,8.60
